Time;durP1;ratioP1;P1;durP2;ratioP2;P2;SDS_P1;SDS_P2;PMS_P1;PMS_P2;Temp;Humidity;BMP_temperature;BMP_pressure;BME280_temperature;BME280_humidity;BME280_pressure;Samples;Min_cycle;Max_cycle;Signal;HPM_P1;HPM_P2
2023/10/01 00:00:19;;;;;;;4.20;1.48;;;20.70;72.80;;;;;;6306882;22;20320;-78
2023/10/01 00:02:45;;;;;;;6.22;1.90;;;20.70;72.80;;;;;;6280001;22;20095;-79
2023/10/01 00:05:11;;;;;;;4.55;1.77;;;20.70;72.80;;;;;;6277682;22;20046;-79
2023/10/01 00:07:39;;;;;;;6.05;1.80;;;20.70;72.80;;;;;;6279551;22;20019;-79
2023/10/01 00:10:13;;;;;;;4.63;1.98;;;20.70;72.80;;;;;;6279947;22;20462;-79
2023/10/01 00:12:39;;;;;;;5.18;2.17;;;20.60;72.80;;;;;;6279394;22;20008;-78
2023/10/01 00:15:06;;;;;;;4.90;1.90;;;20.60;72.80;;;;;;6280044;22;20020;-79
2023/10/01 00:17:32;;;;;;;4.45;1.58;;;20.60;72.80;;;;;;6278947;22;20443;-79
2023/10/01 00:20:00;;;;;;;5.40;2.40;;;20.60;72.80;;;;;;6279009;22;20087;-79
2023/10/01 00:22:26;;;;;;;5.47;2.22;;;20.60;72.80;;;;;;6280196;22;20015;-78
2023/10/01 00:24:52;;;;;;;5.03;2.03;;;20.60;72.80;;;;;;6279856;22;20141;-79
2023/10/01 00:27:17;;;;;;;6.18;1.98;;;20.60;72.80;;;;;;6305700;22;20041;-78
2023/10/01 00:29:43;;;;;;;5.20;1.63;;;20.60;72.80;;;;;;6280205;22;20023;-79
2023/10/01 00:32:08;;;;;;;5.32;2.00;;;20.60;72.80;;;;;;6278656;22;20019;-79
2023/10/01 00:34:34;;;;;;;5.25;1.90;;;20.60;72.80;;;;;;6279040;22;20051;-79
2023/10/01 00:36:59;;;;;;;4.93;2.05;;;20.60;72.80;;;;;;6307538;22;20331;-79
2023/10/01 00:39:25;;;;;;;6.07;2.00;;;20.60;72.80;;;;;;6306055;22;20023;-78
2023/10/01 00:41:52;;;;;;;3.75;1.70;;;20.60;72.80;;;;;;6278365;22;20017;-79
2023/10/01 00:44:18;;;;;;;4.47;1.92;;;20.60;72.80;;;;;;6307215;22;20082;-79
2023/10/01 00:46:43;;;;;;;6.25;1.88;;;20.60;72.80;;;;;;6278903;22;20015;-78
2023/10/01 00:49:09;;;;;;;5.07;1.77;;;20.60;72.80;;;;;;6306821;22;20346;-78
2023/10/01 00:51:34;;;;;;;4.45;1.65;;;20.60;72.80;;;;;;6254218;22;20094;-78
2023/10/01 00:54:02;;;;;;;5.32;2.03;;;20.60;72.80;;;;;;6306037;22;20046;-79
2023/10/01 00:56:28;;;;;;;4.20;1.77;;;20.60;72.80;;;;;;6254017;22;20019;-78
2023/10/01 00:58:54;;;;;;;4.70;2.00;;;20.60;72.80;;;;;;6279033;22;20015;-79
2023/10/01 01:01:23;;;;;;;4.88;1.70;;;20.60;72.80;;;;;;6273428;22;20046;-79
2023/10/01 01:03:52;;;;;;;4.75;2.15;;;20.60;72.80;;;;;;6274211;22;20042;-79
2023/10/01 01:06:23;;;;;;;3.67;1.73;;;20.50;72.80;;;;;;6274094;22;20023;-79
2023/10/01 01:08:56;;;;;;;4.93;1.98;;;20.60;72.80;;;;;;6248808;22;20012;-79
2023/10/01 01:11:22;;;;;;;3.40;1.75;;;20.60;72.80;;;;;;6250343;22;20015;-78
2023/10/01 01:13:50;;;;;;;5.00;2.00;;;20.50;72.80;;;;;;6274576;22;20018;-79
2023/10/01 01:16:19;;;;;;;3.80;1.60;;;20.60;73.40;;;;;;6275167;22;20012;-79
2023/10/01 01:18:51;;;;;;;4.45;1.70;;;20.50;72.80;;;;;;6275500;22;20396;-79
2023/10/01 01:21:18;;;;;;;4.88;2.10;;;20.50;72.80;;;;;;6273192;22;20019;-79
2023/10/01 01:23:46;;;;;;;4.38;1.85;;;20.50;72.80;;;;;;6274579;22;20011;-79
2023/10/01 01:26:13;;;;;;;4.47;2.10;;;20.50;72.80;;;;;;6274110;22;20047;-78
2023/10/01 01:28:41;;;;;;;4.28;1.48;;;20.50;72.80;;;;;;6273547;22;20020;-79
2023/10/01 01:31:08;;;;;;;3.72;1.52;;;20.50;72.80;;;;;;6274689;22;20020;-79
2023/10/01 01:33:40;;;;;;;4.20;1.75;;;20.50;72.80;;;;;;6274030;22;20012;-79
2023/10/01 01:36:08;;;;;;;3.58;1.70;;;20.50;72.80;;;;;;6274798;22;20019;-79
2023/10/01 01:38:36;;;;;;;2.85;1.50;;;20.50;72.80;;;;;;6276355;22;20011;-79
2023/10/01 01:41:03;;;;;;;4.03;1.80;;;20.50;72.80;;;;;;6274354;22;20094;-80
2023/10/01 01:43:32;;;;;;;4.72;1.98;;;20.50;72.80;;;;;;6274086;22;20091;-80
2023/10/01 01:46:03;;;;;;;4.20;1.80;;;20.50;73.40;;;;;;6273532;22;20020;-80
2023/10/01 01:51:00;;;;;;;4.75;1.67;;;20.50;72.80;;;;;;6273165;22;20352;-80
2023/10/01 01:53:35;;;;;;;3.85;1.98;;;20.50;72.80;;;;;;6273136;22;20016;-80
2023/10/01 01:56:05;;;;;;;3.35;1.83;;;20.50;72.80;;;;;;6277905;22;20031;-79
2023/10/01 01:58:32;;;;;;;4.18;1.85;;;20.50;72.80;;;;;;6275011;22;20026;-80
2023/10/01 02:01:01;;;;;;;4.57;1.90;;;20.50;72.80;;;;;;6300432;22;20023;-80
2023/10/01 02:03:27;;;;;;;5.93;2.15;;;20.50;72.80;;;;;;6280049;22;20374;-80
2023/10/01 02:05:53;;;;;;;3.83;1.70;;;20.50;72.80;;;;;;6280696;22;20007;-79
2023/10/01 02:08:25;;;;;;;4.65;2.30;;;20.50;72.80;;;;;;6280974;22;20019;-79
2023/10/01 02:10:51;;;;;;;5.38;2.00;;;20.50;72.80;;;;;;6280085;22;20015;-79
2023/10/01 02:13:17;;;;;;;3.38;1.63;;;20.50;72.80;;;;;;6280911;22;20015;-79
2023/10/01 02:15:45;;;;;;;3.85;1.77;;;20.50;72.80;;;;;;6281182;22;20121;-79
2023/10/01 02:18:13;;;;;;;;;;;20.50;72.80;;;;;;6280659;22;20023;-79
2023/10/01 02:20:40;;;;;;;4.35;1.73;;;20.40;72.70;;;;;;6280915;22;20314;-79
2023/10/01 02:23:06;;;;;;;4.90;2.10;;;20.40;72.80;;;;;;6280990;22;20105;-79
2023/10/01 02:25:39;;;;;;;3.53;1.70;;;20.50;72.80;;;;;;6308054;22;20048;-79
2023/10/01 02:28:15;;;;;;;4.50;1.90;;;20.40;72.80;;;;;;6256152;22;20068;-78
2023/10/01 02:30:47;;;;;;;4.28;1.95;;;20.40;72.80;;;;;;6308691;22;20043;-78
2023/10/01 02:33:15;;;;;;;5.50;2.15;;;20.40;72.80;;;;;;6279709;22;20007;-78
2023/10/01 02:35:41;;;;;;;4.15;2.15;;;20.40;72.80;;;;;;6280660;22;20019;-79
2023/10/01 02:38:07;;;;;;;5.38;1.98;;;20.40;72.80;;;;;;6280559;22;20103;-78
2023/10/01 02:40:37;;;;;;;3.63;1.70;;;20.40;72.80;;;;;;6280213;22;20023;-78
2023/10/01 02:43:07;;;;;;;3.70;1.85;;;20.40;72.80;;;;;;6280755;22;20388;-79
2023/10/01 02:45:33;;;;;;;4.18;2.08;;;20.50;73.50;;;;;;6280843;22;20015;-78
2023/10/01 02:48:16;;;;;;;3.45;1.80;;;20.40;72.80;;;;;;6307740;22;20054;-78
2023/10/01 02:50:45;;;;;;;4.50;1.92;;;20.40;72.80;;;;;;6308708;22;20069;-79
2023/10/01 02:53:13;;;;;;;4.00;1.58;;;20.40;72.80;;;;;;6306961;22;20065;-79
2023/10/01 02:55:44;;;;;;;7.50;1.98;;;20.40;72.80;;;;;;6280598;22;20047;-79
2023/10/01 02:58:32;;;;;;;4.82;1.90;;;20.40;72.80;;;;;;6280592;22;20019;-79
2023/10/01 03:01:04;;;;;;;;;;;20.40;72.90;;;;;;6280308;22;20019;-79
2023/10/01 03:03:32;;;;;;;3.72;2.10;;;20.40;72.80;;;;;;6255078;22;19915;-79
2023/10/01 03:05:58;;;;;;;3.85;1.52;;;20.40;72.90;;;;;;6280725;22;20320;-79
2023/10/01 03:11:11;;;;;;;3.90;1.85;;;20.40;72.80;;;;;;6280265;22;20027;-78
2023/10/01 03:13:38;;;;;;;4.43;2.10;;;20.40;72.80;;;;;;6280893;22;20090;-79
2023/10/01 03:18:54;;;;;;;4.47;2.00;;;20.40;72.80;;;;;;6280417;22;20459;-79
2023/10/01 03:22:05;;;;;;;4.15;1.77;;;20.40;72.90;;;;;;6279602;22;20019;-79
2023/10/01 03:24:09;;;;;;;3.70;1.80;;;20.40;72.80;;;;;;6280545;22;20046;-79
2023/10/01 03:26:34;;;;;;;4.10;2.05;;;20.40;72.80;;;;;;6280668;22;20019;-79
2023/10/01 03:29:17;;;;;;;4.30;2.15;;;20.40;72.80;;;;;;6307134;22;20015;-79
2023/10/01 03:31:46;;;;;;;3.97;1.75;;;20.40;72.80;;;;;;6307952;22;20439;-79
2023/10/01 03:34:28;;;;;;;;;;;20.40;72.80;;;;;;6280163;22;20385;-79
2023/10/01 03:37:00;;;;;;;4.03;1.85;;;20.30;72.70;;;;;;6279605;22;20289;-79
2023/10/01 03:39:35;;;;;;;4.13;2.00;;;20.30;72.80;;;;;;6280287;22;20016;-79
2023/10/01 03:42:13;;;;;;;4.15;1.85;;;20.30;72.80;;;;;;6279558;22;20026;-79
2023/10/01 03:47:24;;;;;;;3.95;1.80;;;20.30;72.80;;;;;;6280105;22;20359;-79
2023/10/01 03:49:54;;;;;;;4.53;1.70;;;20.30;72.80;;;;;;6279345;22;20017;-79
2023/10/01 03:52:21;;;;;;;4.50;1.98;;;20.30;73.40;;;;;;6307877;22;20023;-79
2023/10/01 03:54:54;;;;;;;4.90;2.33;;;20.30;72.80;;;;;;6307454;22;20435;-80
2023/10/01 03:57:19;;;;;;;4.18;2.08;;;20.40;72.90;;;;;;6306475;22;20054;-80
2023/10/01 03:59:52;;;;;;;4.28;2.30;;;20.30;72.80;;;;;;6275096;22;20023;-80
2023/10/01 04:02:28;;;;;;;4.63;2.10;;;20.30;72.80;;;;;;6275787;22;20106;-80
2023/10/01 04:05:03;;;;;;;4.53;2.25;;;20.30;72.80;;;;;;6275655;22;20016;-80
2023/10/01 04:07:43;;;;;;;3.95;2.00;;;20.30;72.80;;;;;;6274303;22;20019;-80
2023/10/01 04:10:28;;;;;;;3.72;1.98;;;20.30;72.80;;;;;;6273849;22;20020;-79
2023/10/01 04:13:11;;;;;;;3.42;1.80;;;20.30;72.80;;;;;;6274727;22;20019;-79
2023/10/01 04:15:41;;;;;;;3.75;1.90;;;20.30;72.80;;;;;;6274985;22;20022;-80
2023/10/01 04:21:43;;;;;;;3.28;1.67;;;20.30;72.80;;;;;;6274888;22;20027;-81
2023/10/01 04:23:41;;;;;;;3.78;1.88;;;20.30;72.80;;;;;;6254755;22;20028;-79
2023/10/01 04:26:13;;;;;;;3.67;1.83;;;20.30;72.80;;;;;;6274095;22;20043;-79
2023/10/01 04:28:46;;;;;;;3.83;1.98;;;20.30;72.80;;;;;;6274967;22;20016;-80
2023/10/01 04:31:15;;;;;;;4.47;2.20;;;20.30;72.90;;;;;;6274035;22;20012;-80
2023/10/01 04:33:49;;;;;;;5.03;2.28;;;20.30;72.80;;;;;;6274710;22;20332;-79
2023/10/01 04:36:16;;;;;;;3.72;1.98;;;20.30;72.80;;;;;;6274676;22;20020;-79
2023/10/01 04:38:45;;;;;;;3.25;2.05;;;20.30;72.80;;;;;;6273713;22;20012;-79
2023/10/01 04:41:17;;;;;;;3.53;1.83;;;20.30;72.80;;;;;;6274455;22;20072;-79
2023/10/01 04:43:51;;;;;;;3.05;1.83;;;20.30;72.80;;;;;;6276771;22;20027;-79
2023/10/01 04:46:21;;;;;;;3.47;1.75;;;20.30;72.80;;;;;;6273630;22;20094;-79
2023/10/01 04:48:47;;;;;;;4.03;1.90;;;20.30;72.80;;;;;;6274876;22;20030;-78
2023/10/01 04:51:13;;;;;;;3.15;1.90;;;20.30;72.80;;;;;;6275883;22;20459;-79
2023/10/01 04:53:39;;;;;;;3.42;1.92;;;20.30;72.80;;;;;;6275285;22;20011;-79
2023/10/01 04:56:10;;;;;;;3.58;2.28;;;20.30;72.80;;;;;;6276258;22;20081;-79
2023/10/01 04:58:36;;;;;;;5.32;2.25;;;20.30;72.80;;;;;;6276696;22;20007;-79
2023/10/01 05:01:07;;;;;;;3.85;1.90;;;20.30;72.80;;;;;;6273741;22;20507;-79
2023/10/01 05:03:38;;;;;;;3.97;2.15;;;20.30;72.80;;;;;;6274590;22;20095;-79
2023/10/01 05:06:11;;;;;;;3.40;1.92;;;20.30;72.80;;;;;;6273879;22;20051;-79
2023/10/01 05:08:40;;;;;;;3.78;1.73;;;20.30;72.80;;;;;;6273807;22;20435;-78
2023/10/01 05:11:10;;;;;;;3.88;1.83;;;20.30;72.80;;;;;;6274027;22;20458;-78
2023/10/01 05:13:40;;;;;;;4.68;2.10;;;20.30;72.80;;;;;;6273733;22;20450;-79
2023/10/01 05:16:13;;;;;;;3.65;1.98;;;20.30;72.80;;;;;;6274243;22;20343;-78
2023/10/01 05:18:39;;;;;;;4.43;2.20;;;20.30;72.80;;;;;;6274755;22;20031;-78
2023/10/01 05:21:12;;;;;;;3.75;2.20;;;20.20;72.70;;;;;;6273506;22;20023;-79
2023/10/01 05:23:39;;;;;;;4.20;2.35;;;20.30;72.80;;;;;;6274150;22;20113;-78
2023/10/01 05:26:06;;;;;;;4.25;1.98;;;20.20;72.80;;;;;;6275748;22;20343;-78
2023/10/01 05:28:31;;;;;;;4.40;2.20;;;20.20;72.80;;;;;;6273108;22;20016;-78
2023/10/01 05:31:05;;;;;;;3.83;2.22;;;20.20;72.80;;;;;;6276462;22;20027;-78
2023/10/01 05:33:33;;;;;;;4.95;2.20;;;20.20;72.70;;;;;;6273961;22;20073;-78
2023/10/01 05:36:00;;;;;;;4.43;2.33;;;20.20;72.80;;;;;;6273464;22;20016;-78
2023/10/01 05:38:28;;;;;;;4.63;2.10;;;20.20;72.70;;;;;;6275934;22;20012;-78
2023/10/01 05:40:57;;;;;;;;;;;20.20;72.70;;;;;;6274780;22;20091;-78
2023/10/01 05:43:27;;;;;;;4.15;1.83;;;20.20;72.70;;;;;;6273053;22;19968;-78
2023/10/01 05:45:54;;;;;;;4.22;2.08;;;20.20;72.80;;;;;;6273746;22;20023;-78
2023/10/01 05:48:20;;;;;;;4.00;2.15;;;20.20;72.80;;;;;;6275245;22;20066;-77
2023/10/01 05:50:49;;;;;;;4.72;2.15;;;20.20;72.80;;;;;;6274979;22;20379;-77
2023/10/01 05:53:17;;;;;;;3.75;2.13;;;20.20;73.30;;;;;;6275157;22;20467;-78
2023/10/01 05:55:43;;;;;;;3.85;1.90;;;20.20;72.80;;;;;;6273249;22;20111;-78
2023/10/01 05:58:19;;;;;;;3.35;2.05;;;20.20;72.70;;;;;;6273944;22;20095;-79
2023/10/01 06:00:56;;;;;;;3.55;2.05;;;20.20;72.80;;;;;;6274016;22;20016;-80
2023/10/01 06:03:23;;;;;;;4.93;2.20;;;20.20;72.80;;;;;;6247350;22;20042;-78
2023/10/01 06:05:58;;;;;;;4.45;2.10;;;20.20;72.80;;;;;;6275887;22;20015;-79
2023/10/01 06:08:33;;;;;;;3.42;1.67;;;20.20;72.80;;;;;;6273968;22;20019;-77
2023/10/01 06:11:07;;;;;;;4.53;2.30;;;20.20;72.70;;;;;;6274644;22;20047;-70
2023/10/01 06:13:37;;;;;;;5.75;2.25;;;20.20;72.80;;;;;;6274246;22;20024;-73
2023/10/01 06:16:11;;;;;;;5.20;2.30;;;20.20;72.80;;;;;;6274348;22;20042;-72
2023/10/01 06:18:41;;;;;;;4.15;1.85;;;20.20;72.80;;;;;;6272821;22;20015;-73
2023/10/01 06:21:09;;;;;;;6.07;2.50;;;20.20;72.80;;;;;;6273588;22;20435;-66
2023/10/01 06:23:49;;;;;;;6.72;2.80;;;20.20;72.90;;;;;;6271734;22;20020;-68
2023/10/01 06:26:29;;;;;;;14.32;2.40;;;20.20;72.90;;;;;;6273303;22;20440;-68
2023/10/01 06:28:55;;;;;;;10.40;3.00;;;20.20;73.00;;;;;;6273769;22;20089;-68
2023/10/01 06:31:20;;;;;;;5.18;2.40;;;20.20;73.10;;;;;;6274326;22;20343;-70
2023/10/01 06:33:46;;;;;;;5.85;2.47;;;20.20;73.10;;;;;;6274439;22;20389;-73
2023/10/01 06:36:15;;;;;;;4.97;2.65;;;20.20;73.20;;;;;;6272728;22;20043;-74
2023/10/01 06:38:45;;;;;;;4.55;2.47;;;20.20;73.10;;;;;;6273034;22;20024;-74
2023/10/01 06:41:20;;;;;;;5.60;2.20;;;20.20;73.10;;;;;;6276865;22;20016;-71
2023/10/01 06:43:49;;;;;;;4.85;2.60;;;20.20;73.10;;;;;;6276724;22;20340;-68
2023/10/01 06:46:19;;;;;;;6.40;2.85;;;20.20;73.10;;;;;;6274462;22;20050;-66
2023/10/01 06:48:47;;;;;;;7.78;2.72;;;20.20;73.30;;;;;;6275496;22;20024;-68
2023/10/01 06:51:24;;;;;;;;;;;20.30;74.00;;;;;;6277595;22;20087;-67
2023/10/01 06:53:58;;;;;;;5.85;2.08;;;20.30;73.40;;;;;;6274574;22;20308;-67
2023/10/01 06:56:24;;;;;;;7.65;2.63;;;20.30;73.60;;;;;;6275391;22;20024;-67
2023/10/01 07:01:35;;;;;;;5.68;2.60;;;20.30;73.40;;;;;;6275054;22;20023;-68
2023/10/01 07:04:05;;;;;;;5.18;2.47;;;20.30;73.50;;;;;;6275062;22;20339;-66
2023/10/01 07:06:36;;;;;;;7.30;2.90;;;20.30;73.60;;;;;;6275516;22;20020;-66
2023/10/01 07:11:56;;;;;;;4.82;2.50;;;20.30;73.70;;;;;;6275583;22;20095;-67
2023/10/01 07:14:38;;;;;;;7.63;2.63;;;20.30;73.60;;;;;;6275913;22;20031;-68
2023/10/01 07:17:08;;;;;;;7.10;2.50;;;20.30;73.70;;;;;;6277522;22;20016;-67
2023/10/01 07:19:34;;;;;;;6.20;2.45;;;20.30;73.70;;;;;;6275896;22;20022;-66
2023/10/01 07:22:06;;;;;;;6.50;2.92;;;20.30;73.70;;;;;;6275243;22;20027;-66
2023/10/01 07:24:33;;;;;;;5.30;2.35;;;20.30;73.80;;;;;;6275635;22;20019;-67
2023/10/01 07:27:06;;;;;;;6.97;2.60;;;20.30;73.80;;;;;;6273194;22;20471;-67
2023/10/01 07:29:42;;;;;;;5.65;2.45;;;20.30;73.90;;;;;;6272649;22;20023;-68
2023/10/01 07:32:12;;;;;;;7.65;2.20;;;20.30;73.90;;;;;;6274866;22;20024;-68
2023/10/01 07:34:48;;;;;;;5.80;2.53;;;20.40;74.00;;;;;;6273539;22;20027;-68
2023/10/01 07:37:23;;;;;;;5.75;2.30;;;20.40;74.00;;;;;;6274613;22;20020;-67
2023/10/01 07:39:52;;;;;;;6.60;2.67;;;20.30;73.90;;;;;;6274002;22;20066;-68
2023/10/01 07:42:17;;;;;;;5.53;2.55;;;20.30;74.00;;;;;;6273502;22;20077;-67
2023/10/01 07:44:44;;;;;;;6.03;2.50;;;20.40;74.00;;;;;;6276342;22;20444;-68
2023/10/01 07:47:28;;;;;;;5.63;2.60;;;20.40;74.00;;;;;;6276003;22;20015;-67
2023/10/01 07:49:56;;;;;;;7.07;2.78;;;20.40;74.00;;;;;;6273793;22;20020;-69
2023/10/01 07:52:23;;;;;;;7.78;2.50;;;20.40;74.00;;;;;;6274615;22;20011;-67
2023/10/01 07:54:49;;;;;;;6.13;2.63;;;20.40;74.00;;;;;;6275223;22;20074;-68
2023/10/01 07:57:27;;;;;;;7.18;2.60;;;20.40;74.10;;;;;;6273847;22;20023;-68
2023/10/01 07:59:53;;;;;;;8.45;2.72;;;20.40;74.20;;;;;;6274796;22;20020;-67
2023/10/01 08:07:24;;;;;;;;;;;20.40;74.20;;;;;;6277060;22;20024;-66
2023/10/01 08:09:54;;;;;;;7.50;2.80;;;20.40;74.10;;;;;;6273863;22;20331;-66
2023/10/01 08:12:28;;;;;;;5.80;2.45;;;20.40;74.80;;;;;;6274243;22;20286;-67
2023/10/01 08:17:43;;;;;;;7.07;2.60;;;20.40;74.30;;;;;;6273482;22;20024;-67
2023/10/01 08:20:18;;;;;;;4.88;2.50;;;20.40;74.20;;;;;;6273369;22;20106;-69
2023/10/01 08:23:09;;;;;;;5.72;2.42;;;20.40;74.10;;;;;;6274855;22;20142;-68
2023/10/01 08:25:32;;;;;;;8.05;2.55;;;20.40;74.10;;;;;;6275303;22;20347;-69
2023/10/01 08:31:42;;;;;;;6.22;2.67;;;20.40;74.00;;;;;;6260575;22;20024;-68
2023/10/01 08:33:42;;;;;;;7.90;2.65;;;20.40;74.00;;;;;;6270897;22;20103;-68
2023/10/01 08:36:14;;;;;;;5.10;2.33;;;20.40;74.00;;;;;;6275780;22;20069;-68
2023/10/01 08:39:19;;;;;;;6.50;2.53;;;20.40;74.00;;;;;;6273836;22;20102;-68
2023/10/01 08:41:35;;;;;;;6.20;2.33;;;20.40;74.00;;;;;;6274044;22;20024;-68
2023/10/01 08:44:10;;;;;;;5.78;2.90;;;20.40;74.00;;;;;;6275326;22;20427;-67
2023/10/01 08:46:39;;;;;;;7.63;2.72;;;20.40;74.00;;;;;;6273933;22;20099;-68
2023/10/01 08:49:30;;;;;;;8.85;3.15;;;20.40;74.00;;;;;;6273951;22;20016;-66
2023/10/01 08:52:18;;;;;;;9.02;2.85;;;20.40;74.00;;;;;;6230651;22;20012;-67
2023/10/01 08:54:43;;;;;;;10.82;3.17;;;20.40;74.00;;;;;;6252598;22;20051;-67
2023/10/01 08:57:17;;;;;;;8.50;3.05;;;20.40;74.10;;;;;;6248742;22;20161;-69
2023/10/01 08:59:43;;;;;;;7.35;2.80;;;20.40;74.10;;;;;;6273518;22;20024;-67
2023/10/01 09:02:16;;;;;;;10.40;3.00;;;20.40;74.20;;;;;;6273828;22;20023;-67
2023/10/01 09:04:45;;;;;;;7.80;2.65;;;20.40;74.30;;;;;;6273992;22;20020;-66
2023/10/01 09:07:20;;;;;;;9.73;3.35;;;20.40;74.20;;;;;;6274872;22;20385;-67
2023/10/01 09:10:05;;;;;;;9.63;3.05;;;20.40;74.30;;;;;;6274516;22;20344;-66
2023/10/01 09:12:34;;;;;;;6.72;2.90;;;20.40;74.20;;;;;;6273066;22;20026;-67
2023/10/01 09:15:04;;;;;;;7.35;2.80;;;20.40;74.30;;;;;;6274209;22;20015;-67
2023/10/01 09:17:56;;;;;;;8.32;2.75;;;20.40;74.30;;;;;;6273680;22;20011;-69
2023/10/01 09:20:42;;;;;;;8.43;2.80;;;20.40;74.20;;;;;;6273125;22;20077;-67
2023/10/01 09:23:08;;;;;;;10.98;2.92;;;20.50;74.10;;;;;;6274232;22;20012;-66
2023/10/01 09:25:39;;;;;;;10.82;3.15;;;20.40;74.00;;;;;;6275804;22;20080;-67
2023/10/01 09:28:23;;;;;;;10.32;3.45;;;20.50;74.20;;;;;;6273447;22;20443;-68
2023/10/01 09:31:02;;;;;;;7.65;2.95;;;20.50;74.30;;;;;;6274468;22;20058;-70
2023/10/01 09:33:29;;;;;;;6.82;2.78;;;20.50;74.30;;;;;;6271332;22;20100;-68
2023/10/01 09:36:02;;;;;;;7.87;3.03;;;20.50;74.40;;;;;;6273211;22;20011;-68
2023/10/01 09:38:28;;;;;;;9.25;3.60;;;20.50;74.40;;;;;;6273825;22;20794;-67
2023/10/01 09:40:57;;;;;;;9.55;3.45;;;20.60;74.40;;;;;;6273474;22;20058;-67
2023/10/01 09:43:29;;;;;;;7.72;2.70;;;20.60;74.40;;;;;;6275886;22;20086;-70
2023/10/01 09:45:57;;;;;;;8.77;3.30;;;20.60;74.30;;;;;;6273405;22;20019;-68
2023/10/01 09:48:33;;;;;;;8.68;2.90;;;20.60;74.30;;;;;;6272221;22;20020;-69
2023/10/01 09:51:15;;;;;;;9.55;3.33;;;20.60;74.30;;;;;;6274230;22;20024;-69
2023/10/01 09:53:56;;;;;;;8.30;3.20;;;20.70;74.40;;;;;;6249230;22;20026;-67
2023/10/01 09:56:26;;;;;;;9.43;4.07;;;20.60;74.30;;;;;;6273080;22;20379;-67
2023/10/01 09:59:03;;;;;;;9.02;3.15;;;20.70;74.30;;;;;;6275145;22;20023;-67
2023/10/01 10:01:33;;;;;;;8.55;3.00;;;20.70;74.40;;;;;;6273028;22;20050;-66
2023/10/01 10:04:01;;;;;;;11.35;3.10;;;20.70;74.40;;;;;;6273955;22;20384;-66
2023/10/01 10:06:27;;;;;;;9.23;3.10;;;20.70;74.30;;;;;;6274784;22;20090;-69
2023/10/01 10:09:05;;;;;;;8.57;3.10;;;20.70;74.30;;;;;;6271913;22;20469;-68
2023/10/01 10:11:32;;;;;;;9.18;3.38;;;20.70;74.30;;;;;;6271369;22;20020;-68
2023/10/01 10:14:00;;;;;;;14.50;4.07;;;20.70;74.30;;;;;;6275184;22;20095;-67
2023/10/01 10:19:09;;;;;;;8.45;3.28;;;20.80;74.30;;;;;;6275612;22;20100;-68
2023/10/01 10:22:16;;;;;;;;;;;20.80;74.20;;;;;;6276108;22;20447;-69
2023/10/01 10:24:46;;;;;;;10.63;3.03;;;20.80;74.20;;;;;;6273720;22;19951;-68
2023/10/01 10:27:35;;;;;;;7.63;3.05;;;20.80;74.20;;;;;;6276053;22;20051;-67
2023/10/01 10:30:14;;;;;;;8.30;3.17;;;20.80;74.20;;;;;;6256379;22;20015;-68
2023/10/01 10:32:44;;;;;;;9.52;3.78;;;20.80;74.20;;;;;;6275011;22;20352;-68
2023/10/01 10:35:16;;;;;;;8.98;3.30;;;20.80;74.20;;;;;;6275152;22;20051;-71
2023/10/01 10:37:53;;;;;;;8.73;3.15;;;20.80;74.10;;;;;;6274526;22;20027;-68
2023/10/01 10:43:08;;;;;;;8.02;3.28;;;20.80;74.10;;;;;;6274842;22;20076;-70
2023/10/01 10:45:45;;;;;;;10.32;3.85;;;20.90;74.20;;;;;;6272444;22;20030;-69
2023/10/01 10:48:11;;;;;;;8.05;3.08;;;20.90;74.10;;;;;;6275112;22;20345;-69
2023/10/01 10:50:53;;;;;;;10.23;3.50;;;20.90;74.00;;;;;;6250304;22;20094;-68
2023/10/01 10:53:20;;;;;;;9.30;3.67;;;20.90;73.80;;;;;;6274051;22;20051;-68
2023/10/01 10:55:55;;;;;;;7.22;3.22;;;20.90;73.80;;;;;;6274592;22;20446;-68
2023/10/01 10:58:28;;;;;;;9.65;3.78;;;20.90;73.60;;;;;;6273728;22;20062;-69
2023/10/01 11:01:09;;;;;;;7.53;3.60;;;21.00;73.60;;;;;;6275043;22;20434;-68
2023/10/01 11:03:44;;;;;;;10.02;3.45;;;21.00;73.60;;;;;;6275345;22;20020;-68
2023/10/01 11:06:29;;;;;;;9.02;3.08;;;21.00;73.50;;;;;;6249033;22;20026;-69
2023/10/01 11:08:56;;;;;;;9.35;3.63;;;21.00;73.50;;;;;;6275353;22;20016;-68
2023/10/01 11:11:39;;;;;;;7.75;3.55;;;21.00;73.50;;;;;;6276780;22;20016;-67
2023/10/01 11:14:17;;;;;;;9.45;3.80;;;21.10;73.50;;;;;;6273997;22;20441;-67
2023/10/01 11:16:44;;;;;;;8.23;3.35;;;21.10;73.50;;;;;;6275841;22;20022;-72
2023/10/01 11:19:14;;;;;;;10.25;4.05;;;21.10;73.40;;;;;;6273579;22;20321;-68
2023/10/01 11:21:46;;;;;;;9.80;3.75;;;21.10;73.90;;;;;;6274543;22;20022;-69
2023/10/01 11:24:16;;;;;;;13.15;4.28;;;21.00;73.00;;;;;;6274121;22;20020;-70
2023/10/01 11:27:11;;;;;;;12.30;4.43;;;21.10;73.00;;;;;;6224914;22;20050;-69
2023/10/01 11:29:38;;;;;;;10.77;4.32;;;21.10;72.80;;;;;;6274451;22;20016;-69
2023/10/01 11:32:05;;;;;;;10.77;4.72;;;21.10;72.80;;;;;;6275276;22;20053;-69
2023/10/01 11:34:55;;;;;;;11.45;4.43;;;21.10;72.70;;;;;;6273632;22;20033;-69
2023/10/01 11:37:27;;;;;;;9.10;4.22;;;21.10;72.60;;;;;;6274891;22;20066;-69
2023/10/01 11:39:54;;;;;;;11.70;4.82;;;21.10;72.60;;;;;;6275043;22;20016;-69
2023/10/01 11:42:27;;;;;;;10.98;4.53;;;21.10;72.50;;;;;;6274754;22;20474;-69
2023/10/01 11:44:53;;;;;;;11.00;3.83;;;21.10;72.50;;;;;;6276828;22;20019;-71
2023/10/01 11:47:34;;;;;;;12.68;4.53;;;21.10;72.50;;;;;;6275696;22;20317;-70
2023/10/01 11:50:08;;;;;;;13.48;4.65;;;21.10;72.50;;;;;;6276161;22;20378;-68
2023/10/01 11:52:35;;;;;;;15.23;5.35;;;21.10;72.30;;;;;;6275232;22;20015;-66
2023/10/01 11:55:16;;;;;;;17.17;5.10;;;21.10;72.20;;;;;;6273703;22;20058;-66
2023/10/01 11:57:51;;;;;;;15.40;5.90;;;21.10;71.90;;;;;;6274428;22;20334;-66
2023/10/01 12:00:32;;;;;;;16.20;5.88;;;21.10;71.80;;;;;;6274397;22;20015;-68
2023/10/01 12:02:58;;;;;;;16.13;6.68;;;21.00;71.60;;;;;;6273165;22;20015;-64
2023/10/01 12:05:38;;;;;;;11.90;5.53;;;21.00;71.40;;;;;;6276122;22;20090;-64
2023/10/01 12:08:06;;;;;;;14.63;5.15;;;21.00;71.30;;;;;;6274300;22;20089;-67
2023/10/01 12:10:32;;;;;;;14.57;5.10;;;21.10;71.40;;;;;;6273188;22;20124;-65
2023/10/01 12:12:58;;;;;;;13.65;5.82;;;21.00;71.20;;;;;;6275917;22;20023;-65
2023/10/01 12:15:36;;;;;;;16.08;5.72;;;21.00;71.10;;;;;;6272046;22;20027;-66
2023/10/01 12:18:08;;;;;;;13.82;6.15;;;21.00;71.10;;;;;;6275875;22;20015;-66
2023/10/01 12:20:46;;;;;;;15.23;5.70;;;21.00;71.00;;;;;;6275593;22;20069;-66
2023/10/01 12:23:12;;;;;;;14.18;5.82;;;21.10;70.90;;;;;;6273093;22;20020;-66
2023/10/01 12:28:29;;;;;;;16.27;5.63;;;21.10;70.90;;;;;;6275973;22;20047;-66
2023/10/01 12:30:59;;;;;;;14.07;5.50;;;21.10;70.80;;;;;;6273646;22;20015;-66
2023/10/01 12:33:38;;;;;;;14.48;6.13;;;21.10;70.80;;;;;;6273630;22;20023;-65
2023/10/01 12:39:16;;;;;;;13.55;5.22;;;21.10;70.80;;;;;;6274317;22;20451;-65
2023/10/01 12:41:48;;;;;;;16.88;5.90;;;21.10;70.80;;;;;;6274100;22;20452;-65
2023/10/01 12:44:36;;;;;;;12.13;5.15;;;21.10;70.80;;;;;;6272537;22;20038;-66
2023/10/01 12:47:06;;;;;;;14.25;5.57;;;21.20;70.80;;;;;;6273919;22;20107;-66
2023/10/01 12:49:33;;;;;;;12.82;5.47;;;21.20;70.90;;;;;;6273887;22;20016;-67
2023/10/01 12:52:08;;;;;;;16.55;5.47;;;21.20;70.80;;;;;;6273371;22;20054;-65
2023/10/01 12:54:36;;;;;;;15.20;5.75;;;21.20;70.80;;;;;;6273744;22;20617;-66
2023/10/01 12:57:22;;;;;;;12.82;5.45;;;21.20;70.80;;;;;;6272356;22;20012;-66
2023/10/01 13:00:21;;;;;;;14.05;5.88;;;21.20;70.90;;;;;;6272079;22;20089;-67
2023/10/01 13:02:43;;;;;;;14.43;5.75;;;21.20;70.90;;;;;;6273633;22;20020;-67
2023/10/01 13:05:22;;;;;;;14.95;5.80;;;21.20;70.80;;;;;;6273319;22;20212;-71
2023/10/01 13:07:50;;;;;;;13.98;5.35;;;21.30;70.80;;;;;;6275924;22;20023;-72
2023/10/01 13:10:33;;;;;;;11.45;5.47;;;21.30;70.90;;;;;;6273820;22;20028;-72
2023/10/01 13:13:01;;;;;;;14.93;5.85;;;21.30;71.00;;;;;;6273170;22;20027;-70
2023/10/01 13:15:41;;;;;;;13.88;6.03;;;21.30;71.20;;;;;;6274005;22;20065;-71
2023/10/01 13:18:18;;;;;;;15.05;5.68;;;21.40;71.30;;;;;;6274530;22;20024;-71
2023/10/01 13:21:27;;;;;;;13.63;5.28;;;21.40;71.30;;;;;;6274573;22;20016;-71
2023/10/01 13:23:41;;;;;;;13.90;5.70;;;21.40;71.30;;;;;;6260456;22;20024;-73
2023/10/01 13:26:31;;;;;;;12.70;5.40;;;21.50;71.30;;;;;;6272697;22;20112;-72
2023/10/01 13:29:00;;;;;;;13.73;5.15;;;21.50;71.30;;;;;;6274249;22;20106;-72
2023/10/01 13:34:12;;;;;;;12.18;5.68;;;21.50;71.30;;;;;;6274473;22;20438;-74
2023/10/01 13:37:11;;;;;;;11.88;5.13;;;21.50;71.30;;;;;;6275592;22;20020;-71
2023/10/01 14:12:11;;;;;;;11.70;4.95;;;22.00;70.60;;;;;;6308411;22;20027;-70
2023/10/01 14:14:37;;;;;;;14.07;5.38;;;22.00;70.40;;;;;;6308496;22;20019;-72
2023/10/01 14:17:14;;;;;;;13.55;4.90;;;22.10;70.50;;;;;;6280329;22;20019;-71
2023/10/01 14:19:51;;;;;;;13.05;4.85;;;22.10;70.50;;;;;;6280746;22;20045;-65
2023/10/01 14:22:20;;;;;;;12.20;4.45;;;22.10;70.40;;;;;;6307919;22;20015;-65
2023/10/01 14:24:49;;;;;;;12.48;4.70;;;22.10;70.30;;;;;;6280891;22;20030;-67